createdAt,value
2022-11-29T00:01:37.844Z,3.30
2022-11-29T00:04:06.305Z,3.30
2022-11-29T00:06:34.970Z,3.30
2022-11-29T00:09:06.371Z,3.30
2022-11-29T00:11:52.945Z,3.20
2022-11-29T00:14:22.909Z,3.30
2022-11-29T00:16:51.835Z,3.30
2022-11-29T00:19:20.257Z,3.40
2022-11-29T00:21:48.705Z,3.40
2022-11-29T00:24:16.941Z,3.40
2022-11-29T00:26:45.119Z,3.40
2022-11-29T00:29:13.585Z,3.40
2022-11-29T00:31:43.417Z,3.40
2022-11-29T00:34:12.081Z,3.40
2022-11-29T00:36:40.386Z,3.30
2022-11-29T00:39:12.013Z,3.20
2022-11-29T00:41:40.759Z,3.10
2022-11-29T00:44:09.001Z,3.10
2022-11-29T00:46:37.174Z,3.10
2022-11-29T00:49:06.773Z,3.00
2022-11-29T00:51:35.109Z,2.90
2022-11-29T00:54:03.203Z,2.90
2022-11-29T00:56:32.582Z,2.90
2022-11-29T00:59:00.720Z,2.90
2022-11-29T01:01:28.935Z,2.90
2022-11-29T01:03:57.231Z,2.90
2022-11-29T01:06:26.842Z,2.90
2022-11-29T01:08:54.993Z,3.00
2022-11-29T01:11:24.300Z,3.00
2022-11-29T01:13:54.621Z,3.10
2022-11-29T01:16:23.112Z,3.10
2022-11-29T01:18:51.367Z,3.10
2022-11-29T01:21:20.526Z,3.10
2022-11-29T01:23:52.862Z,3.10
2022-11-29T01:26:22.515Z,3.10
2022-11-29T01:28:52.241Z,3.10
2022-11-29T01:31:22.018Z,3.10
2022-11-29T01:33:50.253Z,3.10
2022-11-29T01:36:18.382Z,3.10
2022-11-29T01:38:46.617Z,3.10
2022-11-29T01:41:17.996Z,3.10
2022-11-29T01:43:55.314Z,3.00
2022-11-29T01:46:23.672Z,3.00
2022-11-29T01:48:53.367Z,3.00
2022-11-29T01:51:21.504Z,3.00
2022-11-29T01:53:49.779Z,3.00
2022-11-29T01:56:19.471Z,3.00
2022-11-29T01:58:47.641Z,3.00
2022-11-29T02:01:16.519Z,2.90
2022-11-29T02:03:44.808Z,2.90
2022-11-29T02:06:13.143Z,2.80
2022-11-29T02:08:42.394Z,2.80
2022-11-29T02:11:16.076Z,2.90
2022-11-29T02:13:49.189Z,2.90
2022-11-29T02:16:20.155Z,2.80
2022-11-29T02:18:53.674Z,2.80
2022-11-29T02:21:29.485Z,2.80
2022-11-29T02:24:15.308Z,2.80
2022-11-29T02:26:53.728Z,2.90
2022-11-29T02:29:38.958Z,2.80
2022-11-29T02:32:37.988Z,2.80
2022-11-29T02:35:17.832Z,2.70
2022-11-29T02:37:51.653Z,2.70
2022-11-29T02:40:32.171Z,2.70
2022-11-29T02:43:10.445Z,2.70
2022-11-29T02:45:49.894Z,2.70
2022-11-29T02:48:32.826Z,2.60
2022-11-29T02:51:06.287Z,2.70
2022-11-29T02:53:37.601Z,2.70
2022-11-29T02:56:12.326Z,2.80
2022-11-29T02:58:45.184Z,2.90
2022-11-29T03:01:16.041Z,2.90
2022-11-29T03:03:47.714Z,2.90
2022-11-29T03:06:21.845Z,2.90
2022-11-29T03:08:53.172Z,3.00
2022-11-29T03:11:24.956Z,3.00
2022-11-29T03:13:58.064Z,3.00
2022-11-29T03:16:31.571Z,3.00
2022-11-29T03:19:05.627Z,3.00
2022-11-29T03:21:41.832Z,3.00
2022-11-29T03:24:14.708Z,3.00
2022-11-29T03:26:46.244Z,3.10
2022-11-29T03:29:20.544Z,3.10
2022-11-29T03:31:51.523Z,3.00
2022-11-29T03:34:22.584Z,3.00
2022-11-29T03:36:56.053Z,3.00
2022-11-29T03:39:29.668Z,3.10
2022-11-29T03:42:00.217Z,3.00
2022-11-29T03:44:29.651Z,3.00
2022-11-29T03:46:59.975Z,3.00
2022-11-29T03:49:30.838Z,3.10
2022-11-29T03:52:05.685Z,3.10
2022-11-29T03:54:36.533Z,3.10
2022-11-29T03:57:04.909Z,3.10
2022-11-29T03:59:40.508Z,3.00
2022-11-29T04:02:21.476Z,3.00
2022-11-29T04:05:07.386Z,3.00
2022-11-29T04:07:45.732Z,2.90
2022-11-29T04:10:18.701Z,2.90
2022-11-29T04:12:57.533Z,2.90
2022-11-29T04:15:32.783Z,2.80
2022-11-29T04:18:16.296Z,2.80
2022-11-29T04:20:54.905Z,2.80
2022-11-29T04:23:34.447Z,2.80
2022-11-29T04:26:12.993Z,2.80
2022-11-29T04:28:55.213Z,2.80
2022-11-29T04:31:29.898Z,2.70
2022-11-29T04:34:16.360Z,2.70
2022-11-29T04:36:50.115Z,2.70
2022-11-29T04:39:33.625Z,2.80
2022-11-29T04:42:25.758Z,2.70
2022-11-29T04:44:58.971Z,2.70
2022-11-29T04:47:42.297Z,2.70
2022-11-29T04:50:16.908Z,2.70
2022-11-29T04:52:56.263Z,2.60
2022-11-29T04:55:32.408Z,2.60
2022-11-29T04:58:03.204Z,2.60
2022-11-29T05:00:33.892Z,2.50
2022-11-29T05:03:08.263Z,2.60
2022-11-29T05:05:41.581Z,2.60
2022-11-29T05:08:27.414Z,2.60
2022-11-29T05:11:01.488Z,2.50
2022-11-29T05:13:35.625Z,2.50
2022-11-29T05:16:08.743Z,2.60
2022-11-29T05:18:57.654Z,2.60
2022-11-29T05:21:30.130Z,2.60
2022-11-29T05:24:08.962Z,2.60
2022-11-29T05:26:44.333Z,2.60
2022-11-29T05:29:14.025Z,2.60
2022-11-29T05:31:52.400Z,2.60
2022-11-29T05:34:35.285Z,2.60
2022-11-29T05:37:08.306Z,2.60
2022-11-29T05:39:48.676Z,2.60
2022-11-29T05:42:25.642Z,2.70
2022-11-29T05:44:56.264Z,2.70
2022-11-29T05:47:31.516Z,2.70
2022-11-29T05:50:04.591Z,2.70
2022-11-29T05:52:37.932Z,2.70
2022-11-29T05:55:11.906Z,2.70
2022-11-29T05:57:44.905Z,2.80
2022-11-29T06:00:14.849Z,2.80
2022-11-29T06:02:47.771Z,2.80
2022-11-29T06:05:19.682Z,2.80
2022-11-29T06:07:51.884Z,2.80
2022-11-29T06:10:21.301Z,2.90
2022-11-29T06:13:07.195Z,2.90
2022-11-29T06:15:58.825Z,2.90
2022-11-29T06:18:33.104Z,2.90
2022-11-29T06:21:11.133Z,3.00
2022-11-29T06:23:50.079Z,3.00
2022-11-29T06:26:29.361Z,3.00
2022-11-29T06:29:03.079Z,3.10
2022-11-29T06:31:33.727Z,3.10
2022-11-29T06:34:06.605Z,3.10
2022-11-29T06:36:37.232Z,3.10
2022-11-29T06:39:05.689Z,3.10
2022-11-29T06:41:34.185Z,3.10
2022-11-29T06:44:04.102Z,3.20
2022-11-29T06:46:38.728Z,3.10
2022-11-29T06:49:10.684Z,3.10
2022-11-29T06:51:41.737Z,3.10
2022-11-29T06:54:16.987Z,3.20
2022-11-29T06:56:48.631Z,3.20
2022-11-29T06:59:29.310Z,3.20
2022-11-29T07:01:59.371Z,3.20
2022-11-29T07:04:45.403Z,3.20
2022-11-29T07:07:16.001Z,3.20
2022-11-29T07:09:44.644Z,3.20
2022-11-29T07:12:13.450Z,3.20
2022-11-29T07:14:43.864Z,3.20
2022-11-29T07:17:16.860Z,3.20
2022-11-29T07:19:52.874Z,3.10
2022-11-29T07:22:29.190Z,3.10
2022-11-29T07:25:00.764Z,3.10
2022-11-29T07:27:34.212Z,3.10
2022-11-29T07:30:08.173Z,3.20
2022-11-29T07:32:47.292Z,3.10
2022-11-29T07:35:22.933Z,3.10
2022-11-29T07:37:58.813Z,3.10
2022-11-29T07:40:37.142Z,3.10
2022-11-29T07:43:14.532Z,3.00
2022-11-29T07:45:44.320Z,3.00
2022-11-29T07:48:13.077Z,3.00
2022-11-29T07:50:41.611Z,3.00
2022-11-29T07:53:10.853Z,3.10
2022-11-29T07:55:39.168Z,3.10
2022-11-29T07:58:07.260Z,3.10
2022-11-29T08:00:35.560Z,3.10
2022-11-29T08:03:05.801Z,3.10
2022-11-29T08:05:34.092Z,3.20
2022-11-29T08:08:02.174Z,3.20
2022-11-29T08:10:30.368Z,3.20
2022-11-29T08:12:58.679Z,3.20
2022-11-29T08:15:27.598Z,3.20
2022-11-29T08:17:55.648Z,3.20
2022-11-29T08:20:25.292Z,3.30
2022-11-29T08:22:57.308Z,3.30
2022-11-29T08:25:28.296Z,3.30
2022-11-29T08:27:56.475Z,3.30
2022-11-29T08:30:25.045Z,3.30
2022-11-29T08:32:53.442Z,3.30
2022-11-29T08:35:22.633Z,3.30
2022-11-29T08:37:52.272Z,3.20
2022-11-29T08:40:20.610Z,3.20
2022-11-29T08:42:48.663Z,3.20
2022-11-29T08:45:16.828Z,3.20
2022-11-29T08:47:44.963Z,3.20
2022-11-29T08:50:14.616Z,3.30
2022-11-29T08:53:02.517Z,3.20
2022-11-29T08:55:34.625Z,3.20
2022-11-29T08:58:03.650Z,3.30
2022-11-29T09:00:34.709Z,3.30
2022-11-29T09:03:17.208Z,3.40
2022-11-29T09:05:45.502Z,3.40
2022-11-29T09:08:13.708Z,3.40
2022-11-29T09:10:43.742Z,3.50
2022-11-29T09:13:12.103Z,3.50
2022-11-29T09:15:40.461Z,3.50
2022-11-29T09:18:11.685Z,3.50
2022-11-29T09:20:39.935Z,3.60
2022-11-29T09:23:08.085Z,3.60
2022-11-29T09:25:36.204Z,3.60
2022-11-29T09:28:06.239Z,3.60
2022-11-29T09:30:36.647Z,3.60
2022-11-29T09:33:05.321Z,3.60
2022-11-29T09:35:34.200Z,3.60
2022-11-29T09:38:02.287Z,3.60
2022-11-29T09:40:33.270Z,3.60
2022-11-29T09:43:03.763Z,3.60
2022-11-29T09:45:35.728Z,3.60
2022-11-29T09:48:15.792Z,3.60
2022-11-29T09:50:48.094Z,3.60
2022-11-29T09:53:26.331Z,3.60
2022-11-29T09:55:57.666Z,3.70
2022-11-29T09:58:28.466Z,3.70
2022-11-29T10:01:00.244Z,3.70
2022-11-29T10:03:36.244Z,3.60
2022-11-29T10:06:08.114Z,3.50
2022-11-29T10:08:38.588Z,3.50
2022-11-29T10:11:13.800Z,3.60
2022-11-29T10:13:45.069Z,3.60
2022-11-29T10:16:18.581Z,3.60
2022-11-29T10:18:49.680Z,3.60
2022-11-29T10:21:19.248Z,3.70
2022-11-29T10:23:48.565Z,3.70
2022-11-29T10:26:18.257Z,3.70
2022-11-29T10:28:49.742Z,3.70
2022-11-29T10:31:22.324Z,3.70
2022-11-29T10:33:50.783Z,3.70
2022-11-29T10:36:23.441Z,3.70
2022-11-29T10:38:51.974Z,3.70
2022-11-29T10:41:22.338Z,3.70
2022-11-29T10:43:51.311Z,3.70
2022-11-29T10:46:24.821Z,3.70
2022-11-29T10:48:54.085Z,3.70
2022-11-29T10:51:22.165Z,3.80
2022-11-29T10:53:50.893Z,3.90
2022-11-29T10:56:22.688Z,3.90
2022-11-29T10:59:03.296Z,3.80
2022-11-29T11:01:33.652Z,3.80
2022-11-29T11:04:04.468Z,3.70
2022-11-29T11:06:45.228Z,3.60
2022-11-29T11:09:15.689Z,3.60
2022-11-29T11:11:51.208Z,3.60
2022-11-29T11:14:21.009Z,3.50
2022-11-29T11:16:50.746Z,3.50
2022-11-29T11:19:25.916Z,3.60
2022-11-29T11:21:54.645Z,3.60
2022-11-29T11:24:25.165Z,3.60
2022-11-29T11:26:53.412Z,3.70
2022-11-29T11:29:23.491Z,3.70
2022-11-29T11:31:55.120Z,3.70
2022-11-29T11:34:28.049Z,3.70
2022-11-29T11:37:12.265Z,3.70
2022-11-29T11:39:40.525Z,3.70
2022-11-29T11:42:28.789Z,3.70
2022-11-29T11:44:56.932Z,3.70
2022-11-29T11:47:27.899Z,3.80
2022-11-29T11:49:57.316Z,3.80
2022-11-29T11:52:26.252Z,3.80
2022-11-29T11:54:55.723Z,3.80
2022-11-29T11:57:24.874Z,3.80
2022-11-29T11:59:53.653Z,3.90
2022-11-29T12:02:31.046Z,3.80
2022-11-29T12:05:01.991Z,3.70
2022-11-29T12:08:06.213Z,3.50
2022-11-29T12:10:24.364Z,3.40
2022-11-29T12:12:53.441Z,3.40
2022-11-29T12:15:23.997Z,3.40
2022-11-29T12:17:56.576Z,3.40
2022-11-29T12:20:26.931Z,3.50
2022-11-29T12:23:07.092Z,3.60
2022-11-29T12:25:37.307Z,3.70
2022-11-29T12:28:05.512Z,3.60
2022-11-29T12:30:36.765Z,3.60
2022-11-29T12:33:13.725Z,3.60
2022-11-29T12:35:54.924Z,3.60
2022-11-29T12:38:32.058Z,3.60
2022-11-29T12:41:05.293Z,3.60
2022-11-29T12:43:41.204Z,3.70
2022-11-29T12:46:13.046Z,3.70
2022-11-29T12:48:47.333Z,3.70
2022-11-29T12:51:21.156Z,3.60
2022-11-29T12:53:59.427Z,3.60
2022-11-29T12:56:28.213Z,3.60
2022-11-29T12:59:04.549Z,3.60
2022-11-29T13:01:35.602Z,3.60
2022-11-29T13:04:11.722Z,3.60
2022-11-29T13:06:43.429Z,3.60
2022-11-29T13:09:40.060Z,3.60
2022-11-29T13:12:11.276Z,3.60
2022-11-29T13:14:44.379Z,3.60
2022-11-29T13:17:19.381Z,3.60
2022-11-29T13:19:51.558Z,3.50
2022-11-29T13:22:22.638Z,3.50
2022-11-29T13:24:52.060Z,3.50
2022-11-29T13:27:24.801Z,3.50
2022-11-29T13:29:53.204Z,3.50
2022-11-29T13:32:29.349Z,3.50
2022-11-29T13:35:01.817Z,3.40
2022-11-29T13:37:33.168Z,3.40
2022-11-29T13:40:06.684Z,3.40
2022-11-29T13:42:38.504Z,3.40
2022-11-29T13:45:10.276Z,3.40
2022-11-29T13:47:48.808Z,3.40
2022-11-29T13:50:31.745Z,3.30
2022-11-29T13:53:05.793Z,3.30
2022-11-29T13:55:34.408Z,3.40
2022-11-29T13:58:22.283Z,3.30
2022-11-29T14:00:51.722Z,3.30
2022-11-29T14:03:39.821Z,3.30
2022-11-29T14:06:18.446Z,3.30
2022-11-29T14:09:24.499Z,3.20
2022-11-29T14:11:59.087Z,3.20
2022-11-29T14:14:29.228Z,3.30
2022-11-29T14:17:00.082Z,3.20
2022-11-29T14:19:33.677Z,3.20
2022-11-29T14:22:30.451Z,3.20
2022-11-29T14:25:01.169Z,3.20
2022-11-29T14:27:48.146Z,3.20
2022-11-29T14:30:49.190Z,3.20
2022-11-29T14:33:31.437Z,3.20
2022-11-29T14:36:04.653Z,3.20
2022-11-29T14:38:40.936Z,3.20
2022-11-29T14:41:19.144Z,3.20
2022-11-29T14:43:47.408Z,3.20
2022-11-29T14:46:29.191Z,3.20
2022-11-29T14:49:03.447Z,3.20
2022-11-29T14:51:32.626Z,3.20
2022-11-29T14:54:06.726Z,3.10
2022-11-29T14:56:43.446Z,3.10
2022-11-29T14:59:29.991Z,3.00
2022-11-29T15:01:58.549Z,3.00
2022-11-29T15:04:30.808Z,3.00
2022-11-29T15:06:59.841Z,3.00
2022-11-29T15:09:28.613Z,3.00
2022-11-29T15:11:59.072Z,2.90
2022-11-29T15:14:30.109Z,3.00
2022-11-29T15:17:05.795Z,3.00
2022-11-29T15:19:48.686Z,3.00
2022-11-29T15:22:19.397Z,3.00
2022-11-29T15:24:51.274Z,3.00
2022-11-29T15:27:21.453Z,3.00
2022-11-29T15:29:49.518Z,3.00
2022-11-29T15:32:22.040Z,3.00
2022-11-29T15:34:51.517Z,3.00
2022-11-29T15:37:25.413Z,3.00
2022-11-29T15:40:03.627Z,3.00
2022-11-29T15:42:39.377Z,2.90
2022-11-29T15:45:22.435Z,2.80
2022-11-29T15:47:50.718Z,2.80
2022-11-29T15:50:26.790Z,2.80
2022-11-29T15:52:59.345Z,2.80
2022-11-29T15:55:28.113Z,2.80
2022-11-29T15:57:57.376Z,2.80
2022-11-29T16:00:28.158Z,2.80
2022-11-29T16:02:57.836Z,2.80
2022-11-29T16:05:28.115Z,2.80
2022-11-29T16:07:59.869Z,2.80
2022-11-29T16:10:35.202Z,2.80
2022-11-29T16:13:08.965Z,2.80
2022-11-29T16:15:37.887Z,2.90
2022-11-29T16:18:06.529Z,2.90
2022-11-29T16:20:34.640Z,2.90
2022-11-29T16:23:12.655Z,3.00
2022-11-29T16:25:52.144Z,3.00
2022-11-29T16:28:20.372Z,3.00
2022-11-29T16:30:48.455Z,3.10
2022-11-29T16:33:19.923Z,3.10
2022-11-29T16:35:48.914Z,3.10
2022-11-29T16:38:21.788Z,3.10
2022-11-29T16:41:03.980Z,3.10
2022-11-29T16:43:52.721Z,3.20
2022-11-29T16:46:34.155Z,3.20
2022-11-29T16:49:03.749Z,3.10
2022-11-29T16:51:38.869Z,3.20
2022-11-29T16:54:25.278Z,3.20
2022-11-29T16:56:53.904Z,3.20
2022-11-29T16:59:26.984Z,3.30
2022-11-29T17:01:56.571Z,3.40
2022-11-29T17:04:25.272Z,3.40
2022-11-29T17:06:54.238Z,3.40
2022-11-29T17:09:25.803Z,3.40
2022-11-29T17:11:54.196Z,3.50
2022-11-29T17:14:22.583Z,3.50
2022-11-29T17:16:51.955Z,3.60
2022-11-29T17:19:23.922Z,3.60
2022-11-29T17:21:52.555Z,3.50
2022-11-29T17:24:23.905Z,3.60
2022-11-29T17:26:53.591Z,3.60
2022-11-29T17:29:21.734Z,3.70
2022-11-29T17:31:50.890Z,3.60
2022-11-29T17:34:19.075Z,3.60
2022-11-29T17:36:48.416Z,3.60
2022-11-29T17:39:20.083Z,3.70
2022-11-29T17:41:48.498Z,3.60
2022-11-29T17:44:18.173Z,3.70
2022-11-29T17:46:46.283Z,3.70
2022-11-29T17:49:14.563Z,3.70
2022-11-29T17:51:51.873Z,3.70
2022-11-29T17:54:21.471Z,3.60
2022-11-29T17:56:49.778Z,3.70
2022-11-29T17:59:19.588Z,3.70
2022-11-29T18:01:48.374Z,3.70
2022-11-29T18:04:16.616Z,3.70
2022-11-29T18:06:49.834Z,3.70
2022-11-29T18:09:19.577Z,3.60
2022-11-29T18:11:49.636Z,3.60
2022-11-29T18:14:20.392Z,3.70
2022-11-29T18:16:48.636Z,3.70
2022-11-29T18:19:17.836Z,3.70
2022-11-29T18:21:46.060Z,3.70
2022-11-29T18:24:14.606Z,3.80
2022-11-29T18:26:42.715Z,3.80
2022-11-29T18:29:11.184Z,3.90
2022-11-29T18:31:41.435Z,3.90
2022-11-29T18:34:10.796Z,3.80
2022-11-29T18:36:43.079Z,3.80
2022-11-29T18:39:14.116Z,3.80
2022-11-29T18:41:43.321Z,3.80
2022-11-29T18:44:12.620Z,3.80
2022-11-29T18:46:43.675Z,3.80
2022-11-29T18:49:12.637Z,3.80
2022-11-29T18:51:42.421Z,3.80
2022-11-29T18:54:10.583Z,3.80
2022-11-29T18:56:39.301Z,3.80
2022-11-29T18:59:08.728Z,3.80
2022-11-29T19:01:41.298Z,3.80
2022-11-29T19:04:11.934Z,3.80
2022-11-29T19:06:40.368Z,3.80
2022-11-29T19:09:09.887Z,3.80
2022-11-29T19:11:38.204Z,3.90
2022-11-29T19:14:11.356Z,3.80
2022-11-29T19:16:40.894Z,3.80
2022-11-29T19:19:10.678Z,3.90
2022-11-29T19:21:39.835Z,3.80
2022-11-29T19:24:16.036Z,3.90
2022-11-29T19:26:45.572Z,3.80
2022-11-29T19:29:14.157Z,3.80
2022-11-29T19:31:42.702Z,3.80
2022-11-29T19:34:13.384Z,3.80
2022-11-29T19:36:43.622Z,3.90
2022-11-29T19:39:12.405Z,3.90
2022-11-29T19:41:40.595Z,3.90
2022-11-29T19:44:09.408Z,4.00
2022-11-29T19:46:38.587Z,3.90
2022-11-29T19:49:07.486Z,3.90
2022-11-29T19:51:37.223Z,3.90
2022-11-29T19:54:08.997Z,3.90
2022-11-29T19:56:37.061Z,3.90
2022-11-29T19:59:05.244Z,3.90
2022-11-29T20:01:40.340Z,3.90
2022-11-29T20:04:10.206Z,3.90
2022-11-29T20:06:41.315Z,3.90
2022-11-29T20:09:09.855Z,3.80
2022-11-29T20:11:38.181Z,3.80
2022-11-29T20:14:06.999Z,3.90
2022-11-29T20:16:38.118Z,3.90
2022-11-29T20:19:09.476Z,3.90
2022-11-29T20:21:38.246Z,3.90
2022-11-29T20:24:08.423Z,3.90
2022-11-29T20:26:37.084Z,3.90
2022-11-29T20:29:08.414Z,3.90
2022-11-29T20:31:37.544Z,3.90
2022-11-29T20:34:06.639Z,3.80
2022-11-29T20:36:43.785Z,3.90
2022-11-29T20:39:20.871Z,3.90
2022-11-29T20:41:55.045Z,3.90
2022-11-29T20:44:25.929Z,3.90
2022-11-29T20:46:54.325Z,4.00
2022-11-29T20:49:22.661Z,4.00
2022-11-29T20:51:53.631Z,4.00
2022-11-29T20:54:24.577Z,4.00
2022-11-29T20:56:52.676Z,4.00
2022-11-29T20:59:20.850Z,4.00
2022-11-29T21:01:49.012Z,4.20
2022-11-29T21:04:22.950Z,4.00
2022-11-29T21:06:51.668Z,4.00
2022-11-29T21:09:19.837Z,3.90
2022-11-29T21:11:49.777Z,3.90
2022-11-29T21:14:18.320Z,3.90
2022-11-29T21:16:46.734Z,3.90
2022-11-29T21:19:19.677Z,3.90
2022-11-29T21:21:55.247Z,3.90
2022-11-29T21:24:31.343Z,3.90
2022-11-29T21:27:01.335Z,3.90
2022-11-29T21:29:29.748Z,4.10
2022-11-29T21:31:58.292Z,4.10
2022-11-29T21:34:26.396Z,4.10
2022-11-29T21:36:56.928Z,4.10
2022-11-29T21:39:27.695Z,4.00
2022-11-29T21:41:55.796Z,4.00
2022-11-29T21:44:25.429Z,4.00
2022-11-29T21:46:53.611Z,4.00
2022-11-29T21:49:21.744Z,4.00
2022-11-29T21:51:49.895Z,3.90
2022-11-29T21:54:18.046Z,3.90
2022-11-29T21:56:46.364Z,4.00
2022-11-29T21:59:14.440Z,4.00
2022-11-29T22:01:44.080Z,4.00
2022-11-29T22:04:12.520Z,3.90
2022-11-29T22:06:40.556Z,4.00
2022-11-29T22:09:08.803Z,4.00
2022-11-29T22:11:37.114Z,4.00
2022-11-29T22:14:15.175Z,3.90
2022-11-29T22:16:46.203Z,3.90
2022-11-29T22:19:15.298Z,3.90
2022-11-29T22:21:44.148Z,3.90
2022-11-29T22:24:13.082Z,3.90
2022-11-29T22:26:42.805Z,4.00
2022-11-29T22:29:11.508Z,4.00
2022-11-29T22:31:39.690Z,3.90
2022-11-29T22:34:09.272Z,3.90
2022-11-29T22:36:37.856Z,3.90
2022-11-29T22:39:06.242Z,3.80
2022-11-29T22:41:36.145Z,3.80
2022-11-29T22:44:07.079Z,3.80
2022-11-29T22:46:36.284Z,3.80
2022-11-29T22:49:04.444Z,3.70
2022-11-29T22:51:35.068Z,3.70
2022-11-29T22:54:04.219Z,3.70
2022-11-29T22:56:33.028Z,3.70
2022-11-29T22:59:01.426Z,3.70
2022-11-29T23:01:30.100Z,3.60
2022-11-29T23:03:59.375Z,3.60
2022-11-29T23:06:28.541Z,3.60
2022-11-29T23:08:59.707Z,3.60
2022-11-29T23:11:28.535Z,3.60
2022-11-29T23:13:56.819Z,3.70
2022-11-29T23:16:25.734Z,3.60
2022-11-29T23:18:54.409Z,3.60
2022-11-29T23:21:23.873Z,3.60
2022-11-29T23:23:56.368Z,3.60
2022-11-29T23:26:27.559Z,3.60
2022-11-29T23:28:56.271Z,3.60
2022-11-29T23:31:25.206Z,3.60
2022-11-29T23:33:53.576Z,3.60
2022-11-29T23:36:21.767Z,3.50
2022-11-29T23:38:50.027Z,3.50
2022-11-29T23:41:18.451Z,3.50
2022-11-29T23:43:48.225Z,3.50
2022-11-29T23:46:17.835Z,3.50
2022-11-29T23:48:46.030Z,3.50
2022-11-29T23:51:14.463Z,3.50
2022-11-29T23:53:43.011Z,3.50
2022-11-29T23:56:12.906Z,3.50
2022-11-29T23:58:41.497Z,3.50
